createdAt,value
2023-02-22T00:00:59.696Z,100155.44
2023-02-22T00:01:41.532Z,100156.28
2023-02-22T00:02:33.548Z,100144.19
2023-02-22T00:03:08.028Z,100159.97
2023-02-22T00:03:58.511Z,100154.81
2023-02-22T00:04:35.473Z,100155.22
2023-02-22T00:05:26.501Z,100177.22
2023-02-22T00:06:06.573Z,100165.59
2023-02-22T00:06:54.506Z,100171.16
2023-02-22T00:07:28.555Z,100169.53
2023-02-22T00:08:08.541Z,100146.16
2023-02-22T00:08:49.652Z,100178.06
2023-02-22T00:09:29.494Z,100161.66
2023-02-22T00:10:13.302Z,100166.09
2023-02-22T00:10:57.500Z,100180.03
2023-02-22T00:11:38.562Z,100179.69
2023-02-22T00:12:18.497Z,100148.56
2023-02-22T00:13:00.604Z,100181.91
2023-02-22T00:13:43.524Z,100149.81
2023-02-22T00:14:27.382Z,100182.16
2023-02-22T00:15:07.523Z,100179.91
2023-02-22T00:15:47.563Z,100169.13
2023-02-22T00:16:30.527Z,100160.69
2023-02-22T00:17:13.434Z,100166.44
2023-02-22T00:17:54.501Z,100163.28
2023-02-22T00:18:37.742Z,100185.34
2023-02-22T00:19:17.545Z,100162.81
2023-02-22T00:19:57.701Z,100180.66
2023-02-22T00:20:37.489Z,100159.13
2023-02-22T00:21:20.626Z,100173.19
2023-02-22T00:22:01.528Z,100170.22
2023-02-22T00:22:41.624Z,100159.97
2023-02-22T00:23:27.491Z,100186.53
2023-02-22T00:24:29.575Z,100179.41
2023-02-22T00:25:24.475Z,100155.44
2023-02-22T00:26:19.483Z,100163.72
2023-02-22T00:27:13.504Z,100177.13
2023-02-22T00:28:07.491Z,100163.53
2023-02-22T00:29:06.479Z,100176.50
2023-02-22T00:29:53.518Z,100180.63
2023-02-22T00:30:31.883Z,100184.06
2023-02-22T00:31:18.805Z,100169.97
2023-02-22T00:31:52.653Z,100184.78
2023-02-22T00:32:39.488Z,100166.69
2023-02-22T00:33:21.548Z,100196.69
2023-02-22T00:34:02.460Z,100184.31
2023-02-22T00:34:43.655Z,100180.16
2023-02-22T00:35:26.505Z,100168.16
2023-02-22T00:36:06.593Z,100195.81
2023-02-22T00:36:55.496Z,100193.63
2023-02-22T00:37:36.102Z,100178.94
2023-02-22T00:38:17.472Z,100181.59
2023-02-22T00:38:57.575Z,100183.44
2023-02-22T00:39:37.463Z,100196.31
2023-02-22T00:40:22.540Z,100183.56
2023-02-22T00:41:02.515Z,100181.13
2023-02-22T00:41:43.634Z,100173.56
2023-02-22T00:42:26.469Z,100173.28
2023-02-22T00:43:09.564Z,100187.50
2023-02-22T00:43:49.486Z,100192.91
2023-02-22T00:44:29.532Z,100176.13
2023-02-22T00:45:10.463Z,100180.31
2023-02-22T00:45:51.563Z,100173.94
2023-02-22T00:46:31.471Z,100190.19
2023-02-22T00:47:11.543Z,100177.34
2023-02-22T00:47:51.464Z,100181.50
2023-02-22T00:48:32.676Z,100180.63
2023-02-22T00:49:12.482Z,100199.25
2023-02-22T00:49:53.597Z,100183.94
2023-02-22T00:50:35.482Z,100197.69
2023-02-22T00:51:15.802Z,100194.84
2023-02-22T00:51:56.484Z,100166.91
2023-02-22T00:52:36.921Z,100190.59
2023-02-22T00:53:18.451Z,100203.47
2023-02-22T00:53:59.531Z,100192.53
2023-02-22T00:54:39.481Z,100168.28
2023-02-22T00:55:27.595Z,100180.38
2023-02-22T00:56:08.464Z,100190.19
2023-02-22T00:56:50.433Z,100183.59
2023-02-22T00:57:31.476Z,100196.34
2023-02-22T00:58:13.572Z,100182.78
2023-02-22T00:58:53.437Z,100177.00
2023-02-22T00:59:33.526Z,100188.50
2023-02-22T01:00:19.451Z,100176.72
2023-02-22T01:00:59.522Z,100177.97
2023-02-22T01:01:39.511Z,100188.84
2023-02-22T01:02:20.574Z,100196.13
2023-02-22T01:03:02.486Z,100182.66
2023-02-22T01:03:42.592Z,100171.84
2023-02-22T01:04:24.434Z,100181.91
2023-02-22T01:05:04.501Z,100187.75
2023-02-22T01:05:45.429Z,100203.22
2023-02-22T01:06:26.526Z,100203.97
2023-02-22T01:07:07.459Z,100193.56
2023-02-22T01:07:48.526Z,100181.41
2023-02-22T01:08:31.456Z,100180.75
2023-02-22T01:09:11.513Z,100188.53
2023-02-22T01:09:51.456Z,100186.81
2023-02-22T01:10:35.504Z,100177.03
2023-02-22T01:11:16.811Z,100204.19
2023-02-22T01:12:02.297Z,100204.31
2023-02-22T01:12:42.442Z,100179.91
2023-02-22T01:13:23.030Z,100181.16
2023-02-22T01:14:04.471Z,100184.06
2023-02-22T01:14:45.498Z,100191.06
2023-02-22T01:15:29.450Z,100203.28
2023-02-22T01:16:10.529Z,100188.38
2023-02-22T01:16:50.511Z,100194.34
2023-02-22T01:17:31.494Z,100176.09
2023-02-22T01:18:12.433Z,100200.50
2023-02-22T01:18:53.531Z,100172.06
2023-02-22T01:19:33.467Z,100204.63
2023-02-22T01:20:16.522Z,100187.00
2023-02-22T01:20:56.459Z,100176.94
2023-02-22T01:21:36.481Z,100182.84
2023-02-22T01:22:17.437Z,100183.47
2023-02-22T01:23:00.523Z,100198.38
2023-02-22T01:23:40.420Z,100185.53
2023-02-22T01:24:22.505Z,100209.03
2023-02-22T01:25:02.444Z,100212.72
2023-02-22T01:25:43.819Z,100187.22
2023-02-22T01:26:24.430Z,100211.72
2023-02-22T01:27:05.495Z,100193.00
2023-02-22T01:27:45.457Z,100203.56
2023-02-22T01:28:26.549Z,100198.66
2023-02-22T01:29:06.421Z,100186.13
2023-02-22T01:29:46.540Z,100198.88
2023-02-22T01:30:34.545Z,100195.09
2023-02-22T01:31:15.921Z,100199.97
2023-02-22T01:32:01.484Z,100199.50
2023-02-22T01:32:47.523Z,100202.19
2023-02-22T01:33:34.431Z,100189.28
2023-02-22T01:34:09.032Z,100189.56
2023-02-22T01:34:59.430Z,100189.19
2023-02-22T01:35:44.449Z,100196.16
2023-02-22T01:36:38.402Z,100184.16
2023-02-22T01:37:32.414Z,100179.88
2023-02-22T01:38:26.392Z,100186.50
2023-02-22T01:39:20.432Z,100170.56
2023-02-22T01:40:14.437Z,100201.47
2023-02-22T01:41:01.447Z,100180.88
2023-02-22T01:41:35.480Z,100201.72
2023-02-22T01:42:23.405Z,100199.56
2023-02-22T01:43:04.493Z,100188.50
2023-02-22T01:43:52.404Z,100177.97
2023-02-22T01:44:44.489Z,100204.78
2023-02-22T01:45:37.389Z,100204.09
2023-02-22T01:46:30.506Z,100204.94
2023-02-22T01:47:24.407Z,100179.66
2023-02-22T01:48:56.416Z,100203.03
2023-02-22T01:50:01.397Z,100177.94
2023-02-22T01:51:17.731Z,100199.63
2023-02-22T01:51:59.386Z,100192.88
2023-02-22T01:52:39.471Z,100199.34
2023-02-22T01:53:23.401Z,100207.91
2023-02-22T01:54:36.458Z,100210.22
2023-02-22T01:55:17.400Z,100199.19
2023-02-22T01:55:58.452Z,100202.41
2023-02-22T01:56:43.387Z,100187.19
2023-02-22T01:57:36.409Z,100192.09
2023-02-22T01:58:11.489Z,100200.47
2023-02-22T01:59:08.398Z,100198.50
2023-02-22T01:59:45.464Z,100189.44
2023-02-22T02:00:34.397Z,100182.34
2023-02-22T02:01:08.440Z,100197.53
2023-02-22T02:01:56.396Z,100189.72
2023-02-22T02:02:30.447Z,100198.53
2023-02-22T02:03:21.400Z,100197.03
2023-02-22T02:04:06.458Z,100202.19
2023-02-22T02:04:49.407Z,100202.69
2023-02-22T02:05:31.330Z,100187.25
2023-02-22T02:06:18.415Z,100187.13
2023-02-22T02:07:00.445Z,100201.72
2023-02-22T02:07:43.375Z,100173.31
2023-02-22T02:09:02.405Z,100199.06
2023-02-22T02:10:12.404Z,100207.66
2023-02-22T02:11:09.429Z,100200.28
2023-02-22T02:12:04.392Z,100184.34
2023-02-22T02:13:02.394Z,100196.75
2023-02-22T02:13:56.383Z,100199.06
2023-02-22T02:14:38.392Z,100194.53
2023-02-22T02:15:31.449Z,100170.66
2023-02-22T02:16:12.380Z,100182.16
2023-02-22T02:17:01.316Z,100202.00
2023-02-22T02:17:43.358Z,100192.44
2023-02-22T02:18:23.421Z,100189.75
2023-02-22T02:19:04.405Z,100183.41
2023-02-22T02:20:18.432Z,100178.97
2023-02-22T02:21:54.381Z,100201.63
2023-02-22T02:23:01.375Z,100183.00
2023-02-22T02:24:37.376Z,100191.22
2023-02-22T02:26:04.409Z,100190.09
2023-02-22T02:27:34.388Z,100188.78
2023-02-22T02:28:47.398Z,100193.41
2023-02-22T02:30:37.479Z,100201.84
2023-02-22T02:31:44.482Z,100183.84
2023-02-22T02:32:53.865Z,100202.72
2023-02-22T02:33:58.359Z,100180.69
2023-02-22T02:35:01.432Z,100199.78
2023-02-22T02:36:10.336Z,100170.38
2023-02-22T02:37:21.368Z,100199.53
2023-02-22T02:38:34.361Z,100190.22
2023-02-22T02:39:51.365Z,100173.56
2023-02-22T02:41:01.357Z,100174.31
2023-02-22T02:42:03.344Z,100166.09
2023-02-22T02:42:57.355Z,100191.81
2023-02-22T02:44:00.474Z,100192.38
2023-02-22T02:44:53.369Z,100176.38
2023-02-22T02:45:56.478Z,100182.09
2023-02-22T02:46:57.383Z,100188.97
2023-02-22T02:47:44.428Z,100167.56
2023-02-22T02:48:28.393Z,100171.97
2023-02-22T02:49:19.422Z,100179.91
2023-02-22T02:50:44.314Z,100194.09
2023-02-22T02:51:25.419Z,100189.44
2023-02-22T02:52:07.341Z,100186.28
2023-02-22T02:52:48.406Z,100172.81
2023-02-22T02:53:33.361Z,100192.16
2023-02-22T02:54:13.396Z,100178.44
2023-02-22T02:54:54.331Z,100174.03
2023-02-22T02:55:36.756Z,100177.00
2023-02-22T02:56:17.344Z,100199.50
2023-02-22T02:56:57.388Z,100181.88
2023-02-22T02:57:37.345Z,100196.41
2023-02-22T02:58:29.604Z,100192.16
2023-02-22T02:59:09.368Z,100195.56
2023-02-22T02:59:49.417Z,100196.41
2023-02-22T03:00:35.350Z,100159.59
2023-02-22T03:01:15.788Z,100183.81
2023-02-22T03:02:32.329Z,100187.84
2023-02-22T03:03:28.383Z,100182.72
2023-02-22T03:04:37.369Z,100201.69
2023-02-22T03:05:41.416Z,100199.50
2023-02-22T03:07:01.328Z,100196.44
2023-02-22T03:08:16.374Z,100198.06
2023-02-22T03:09:20.341Z,100192.38
2023-02-22T03:10:26.338Z,100189.47
2023-02-22T03:11:34.411Z,100195.84
2023-02-22T03:12:55.351Z,100200.25
2023-02-22T03:13:45.079Z,100192.66
2023-02-22T03:14:47.349Z,100197.53
2023-02-22T03:15:33.527Z,100197.53
2023-02-22T03:16:48.313Z,100201.81
2023-02-22T03:18:13.335Z,100193.59
2023-02-22T03:19:24.329Z,100195.19
2023-02-22T03:20:38.370Z,100194.22
2023-02-22T03:21:54.330Z,100164.22
2023-02-22T03:22:59.298Z,100191.66
2023-02-22T03:24:28.324Z,100176.22
2023-02-22T03:25:36.371Z,100193.59
2023-02-22T03:26:26.327Z,100200.22
2023-02-22T03:27:44.417Z,100173.50
2023-02-22T03:28:27.314Z,100201.66
2023-02-22T03:29:08.363Z,100202.78
2023-02-22T03:29:51.289Z,100190.66
2023-02-22T03:31:37.341Z,100204.84
2023-02-22T03:32:37.320Z,100191.81
2023-02-22T03:33:40.313Z,100200.25
2023-02-22T03:34:40.310Z,100204.19
2023-02-22T03:35:39.329Z,100200.28
2023-02-22T03:36:39.354Z,100210.28
2023-02-22T03:37:35.354Z,100206.38
2023-02-22T03:38:19.314Z,100200.59
2023-02-22T03:39:00.367Z,100194.09
2023-02-22T03:39:43.313Z,100185.06
2023-02-22T03:40:30.353Z,100199.00
2023-02-22T03:41:11.305Z,100204.03
2023-02-22T03:42:03.327Z,100201.22
2023-02-22T03:43:02.312Z,100204.78
2023-02-22T03:44:03.315Z,100205.63
2023-02-22T03:44:58.318Z,100207.34
2023-02-22T03:45:55.301Z,100185.53
2023-02-22T03:46:50.304Z,100199.50
2023-02-22T03:47:43.302Z,100196.69
2023-02-22T03:48:38.354Z,100189.97
2023-02-22T03:49:38.311Z,100197.28
2023-02-22T03:50:26.292Z,100186.13
2023-02-22T03:51:09.305Z,100192.16
2023-02-22T03:51:49.446Z,100186.28
2023-02-22T03:52:30.312Z,100180.13
2023-02-22T03:53:11.305Z,100180.50
2023-02-22T03:53:45.376Z,100166.19
2023-02-22T03:54:34.270Z,100182.47
2023-02-22T03:55:11.148Z,100199.59
2023-02-22T03:55:59.294Z,100203.16
2023-02-22T03:56:41.328Z,100205.00
2023-02-22T03:57:39.293Z,100210.25
2023-02-22T03:58:25.321Z,100211.25
2023-02-22T03:59:22.289Z,100190.91
2023-02-22T04:00:21.284Z,100201.94
2023-02-22T04:01:15.695Z,100206.34
2023-02-22T04:02:11.280Z,100203.16
2023-02-22T04:03:05.402Z,100199.50
2023-02-22T04:03:46.287Z,100210.03
2023-02-22T04:04:26.384Z,100201.69
2023-02-22T04:05:07.284Z,100198.28
2023-02-22T04:05:47.402Z,100198.91
2023-02-22T04:06:27.259Z,100191.41
2023-02-22T04:07:07.346Z,100217.13
2023-02-22T04:07:48.267Z,100218.13
2023-02-22T04:08:30.211Z,100204.41
2023-02-22T04:09:10.315Z,100198.78
2023-02-22T04:09:50.383Z,100188.41
2023-02-22T04:10:31.274Z,100224.53
2023-02-22T04:11:11.373Z,100199.81
2023-02-22T04:11:52.270Z,100224.28
2023-02-22T04:12:32.333Z,100212.78
2023-02-22T04:13:16.268Z,100211.19
2023-02-22T04:13:57.118Z,100196.13
2023-02-22T04:14:37.284Z,100206.31
2023-02-22T04:15:22.376Z,100218.66
2023-02-22T04:16:02.360Z,100200.66
2023-02-22T04:16:42.348Z,100221.63
2023-02-22T04:17:22.268Z,100207.75
2023-02-22T04:18:02.325Z,100205.44
2023-02-22T04:18:42.283Z,100213.34
2023-02-22T04:19:22.320Z,100203.06
2023-02-22T04:20:03.293Z,100215.94
2023-02-22T04:20:44.676Z,100223.75
2023-02-22T04:21:24.262Z,100224.59
2023-02-22T04:22:04.330Z,100215.88
2023-02-22T04:22:44.266Z,100229.56
2023-02-22T04:23:24.332Z,100218.66
2023-02-22T04:24:05.275Z,100233.69
2023-02-22T04:24:45.426Z,100205.78
2023-02-22T04:25:26.316Z,100228.78
2023-02-22T04:26:06.326Z,100228.78
2023-02-22T04:26:47.254Z,100205.50
2023-02-22T04:27:27.304Z,100224.72
2023-02-22T04:28:07.232Z,100217.53
2023-02-22T04:28:47.327Z,100210.19
2023-02-22T04:29:28.244Z,100205.78
2023-02-22T04:30:08.344Z,100234.69
2023-02-22T04:30:50.317Z,100214.84
2023-02-22T04:31:30.330Z,100219.75
2023-02-22T04:32:11.299Z,100228.09
2023-02-22T04:32:52.352Z,100224.69
2023-02-22T04:33:33.263Z,100231.06
2023-02-22T04:34:13.346Z,100230.81
2023-02-22T04:34:53.230Z,100226.44
2023-02-22T04:35:35.492Z,100216.75
2023-02-22T04:36:17.275Z,100230.59
2023-02-22T04:36:57.332Z,100211.28
2023-02-22T04:37:38.252Z,100233.19
2023-02-22T04:38:12.029Z,100203.38
2023-02-22T04:39:00.290Z,100214.91
2023-02-22T04:39:34.955Z,100227.16
2023-02-22T04:40:23.230Z,100235.59
2023-02-22T04:40:56.925Z,100225.09
2023-02-22T04:41:38.259Z,100215.41
2023-02-22T04:42:12.291Z,100211.72
2023-02-22T04:42:46.043Z,100226.94
2023-02-22T04:43:27.233Z,100230.59
2023-02-22T04:44:01.301Z,100216.25
2023-02-22T04:44:34.981Z,100237.56
2023-02-22T04:45:16.230Z,100232.25
2023-02-22T04:45:50.296Z,100242.59
2023-02-22T04:46:24.163Z,100235.97
2023-02-22T04:47:04.248Z,100224.47
2023-02-22T04:47:38.356Z,100226.94
2023-02-22T04:48:12.043Z,100231.69
2023-02-22T04:48:52.242Z,100216.66
2023-02-22T04:49:26.309Z,100209.53
2023-02-22T04:50:00.367Z,100218.38
2023-02-22T04:50:41.461Z,100231.97
2023-02-22T04:51:15.598Z,100230.63
2023-02-22T04:51:49.963Z,100232.25
2023-02-22T04:52:30.243Z,100203.66
2023-02-22T04:53:04.305Z,100208.84
2023-02-22T04:53:37.927Z,100236.03
2023-02-22T04:54:20.236Z,100224.13
2023-02-22T04:54:54.397Z,100224.75
2023-02-22T04:55:29.043Z,100231.63
2023-02-22T04:56:10.217Z,100216.94
2023-02-22T04:56:44.298Z,100222.31
2023-02-22T04:57:17.955Z,100219.63
2023-02-22T04:57:58.230Z,100212.50
2023-02-22T04:58:32.286Z,100235.81
2023-02-22T04:59:05.902Z,100243.75
2023-02-22T04:59:47.337Z,100212.63
2023-02-22T05:00:26.267Z,100231.63
2023-02-22T05:01:00.950Z,100241.69
2023-02-22T05:01:43.218Z,100232.84
2023-02-22T05:02:17.360Z,100222.56
2023-02-22T05:02:51.385Z,100216.94
2023-02-22T05:03:32.247Z,100217.44
2023-02-22T05:04:08.273Z,100215.94
2023-02-22T05:04:42.053Z,100233.34
2023-02-22T05:05:28.242Z,100241.81
2023-02-22T05:06:02.287Z,100216.66
2023-02-22T05:06:35.908Z,100229.28
2023-02-22T05:07:17.178Z,100223.75
2023-02-22T05:07:51.339Z,100236.88
2023-02-22T05:08:24.916Z,100238.94
2023-02-22T05:09:05.250Z,100242.09
2023-02-22T05:09:39.309Z,100212.69
2023-02-22T05:10:13.070Z,100246.25
2023-02-22T05:10:53.241Z,100223.94
2023-02-22T05:11:27.264Z,100207.19
2023-02-22T05:12:00.959Z,100215.47
2023-02-22T05:12:42.211Z,100220.84
2023-02-22T05:13:16.425Z,100232.34
2023-02-22T05:13:50.010Z,100219.38
2023-02-22T05:14:33.226Z,100246.31
2023-02-22T05:15:07.296Z,100224.88
2023-02-22T05:15:40.950Z,100237.13
2023-02-22T05:16:22.281Z,100225.47
2023-02-22T05:16:56.346Z,100245.44
2023-02-22T05:17:29.932Z,100212.19
2023-02-22T05:18:11.216Z,100227.31
2023-02-22T05:18:45.270Z,100233.44
2023-02-22T05:19:19.879Z,100244.91
2023-02-22T05:20:00.205Z,100218.72
2023-02-22T05:20:40.262Z,100221.44
2023-02-22T05:21:13.967Z,100245.69
2023-02-22T05:21:55.213Z,100244.69
2023-02-22T05:22:29.416Z,100232.78
2023-02-22T05:23:05.083Z,100244.66
2023-02-22T05:23:46.203Z,100227.03
2023-02-22T05:24:20.254Z,100211.13
2023-02-22T05:24:53.965Z,100218.44
2023-02-22T05:25:35.248Z,100245.91
2023-02-22T05:26:11.667Z,100232.41
2023-02-22T05:26:46.484Z,100222.13
2023-02-22T05:27:27.248Z,100247.59
2023-02-22T05:28:12.606Z,100231.06
2023-02-22T05:28:46.955Z,100243.72
2023-02-22T05:29:27.206Z,100238.22
2023-02-22T05:30:01.310Z,100236.75
2023-02-22T05:30:46.312Z,100249.63
2023-02-22T05:31:26.334Z,100224.13
2023-02-22T05:32:09.197Z,100244.69
2023-02-22T05:32:49.273Z,100252.03
2023-02-22T05:33:29.171Z,100242.34
2023-02-22T05:34:09.279Z,100239.16
2023-02-22T05:34:49.277Z,100225.81
2023-02-22T05:35:30.269Z,100244.31
2023-02-22T05:36:12.209Z,100248.84
2023-02-22T05:36:52.664Z,100245.16
2023-02-22T05:37:33.172Z,100236.81
2023-02-22T05:38:15.046Z,100222.63
2023-02-22T05:38:56.186Z,100228.72
2023-02-22T05:39:37.246Z,100240.00
2023-02-22T05:40:21.202Z,100249.56
2023-02-22T05:41:01.253Z,100251.03
2023-02-22T05:41:41.221Z,100221.38
2023-02-22T05:42:22.027Z,100247.81
2023-02-22T05:43:05.184Z,100229.66
2023-02-22T05:43:46.236Z,100235.03
2023-02-22T05:44:27.183Z,100237.53
2023-02-22T05:45:07.246Z,100230.66
2023-02-22T05:45:47.195Z,100245.84
2023-02-22T05:46:27.285Z,100226.25
2023-02-22T05:47:07.205Z,100239.47
2023-02-22T05:47:48.291Z,100235.56
2023-02-22T05:48:29.189Z,100232.25
2023-02-22T05:49:10.300Z,100259.09
2023-02-22T05:49:50.175Z,100241.94
2023-02-22T05:50:33.093Z,100256.41
2023-02-22T05:51:14.384Z,100259.81
2023-02-22T05:51:59.153Z,100239.97
2023-02-22T05:52:39.197Z,100241.19
2023-02-22T05:53:19.471Z,100251.72
2023-02-22T05:53:59.192Z,100259.22
2023-02-22T05:54:39.350Z,100263.72
2023-02-22T05:55:23.231Z,100236.03
2023-02-22T05:56:03.235Z,100238.72
2023-02-22T05:56:44.175Z,100259.09
2023-02-22T05:57:24.300Z,100254.31
2023-02-22T05:58:04.274Z,100260.69
2023-02-22T05:58:44.250Z,100242.94
2023-02-22T05:59:24.154Z,100259.25
2023-02-22T06:00:04.474Z,100250.25
2023-02-22T06:00:45.166Z,100262.91
2023-02-22T06:01:26.998Z,100245.25
2023-02-22T06:02:07.232Z,100256.91
2023-02-22T06:02:47.239Z,100261.81
2023-02-22T06:03:27.177Z,100247.13
2023-02-22T06:04:09.078Z,100236.81
2023-02-22T06:04:53.146Z,100255.69
2023-02-22T06:05:34.286Z,100260.59
2023-02-22T06:06:14.164Z,100277.50
2023-02-22T06:06:54.289Z,100267.47
2023-02-22T06:07:34.179Z,100265.88
2023-02-22T06:08:15.247Z,100279.34
2023-02-22T06:08:55.192Z,100264.41
2023-02-22T06:09:35.269Z,100257.31
2023-02-22T06:10:15.183Z,100269.66
2023-02-22T06:10:55.207Z,100256.41
2023-02-22T06:11:35.175Z,100283.88
2023-02-22T06:12:16.374Z,100267.72
2023-02-22T06:12:57.174Z,100271.75
2023-02-22T06:13:37.264Z,100279.69
2023-02-22T06:14:17.179Z,100278.50
2023-02-22T06:14:57.204Z,100255.69
2023-02-22T06:15:38.195Z,100253.97
2023-02-22T06:16:19.390Z,100259.69
2023-02-22T06:17:02.167Z,100264.91
2023-02-22T06:17:45.279Z,100266.09
2023-02-22T06:18:25.173Z,100280.94
2023-02-22T06:19:05.422Z,100269.44
2023-02-22T06:19:47.215Z,100258.28
2023-02-22T06:20:30.292Z,100271.16
2023-02-22T06:21:11.148Z,100280.19
2023-02-22T06:22:03.073Z,100278.25
2023-02-22T06:22:43.170Z,100282.13
2023-02-22T06:23:23.250Z,100280.66
2023-02-22T06:24:03.180Z,100289.72
2023-02-22T06:24:45.229Z,100288.75
2023-02-22T06:25:30.152Z,100286.19
2023-02-22T06:26:10.245Z,100268.03
2023-02-22T06:26:50.151Z,100291.19
2023-02-22T06:27:30.205Z,100288.50
2023-02-22T06:28:11.171Z,100289.97
2023-02-22T06:28:55.197Z,100273.06
2023-02-22T06:29:36.124Z,100259.81
2023-02-22T06:30:19.244Z,100293.66
2023-02-22T06:30:59.224Z,100289.25
2023-02-22T06:31:39.258Z,100295.03
2023-02-22T06:32:20.214Z,100294.03
2023-02-22T06:33:01.207Z,100278.13
2023-02-22T06:33:41.201Z,100291.47
2023-02-22T06:34:21.954Z,100290.03
2023-02-22T06:35:02.335Z,100275.03
2023-02-22T06:35:42.374Z,100296.91
2023-02-22T06:36:22.152Z,100289.16
2023-02-22T06:37:03.211Z,100290.03
2023-02-22T06:37:43.132Z,100282.28
2023-02-22T06:38:31.218Z,100304.22
2023-02-22T06:39:11.140Z,100293.22
2023-02-22T06:39:51.235Z,100282.41
2023-02-22T06:40:36.354Z,100294.94
2023-02-22T06:41:17.425Z,100296.13
2023-02-22T06:41:59.210Z,100292.22
2023-02-22T06:42:40.377Z,100307.03
2023-02-22T06:43:20.144Z,100267.69
2023-02-22T06:44:00.196Z,100298.31
2023-02-22T06:44:40.132Z,100292.16
2023-02-22T06:45:22.310Z,100287.25
2023-02-22T06:46:02.232Z,100290.56
2023-02-22T06:46:43.256Z,100284.09
2023-02-22T06:47:23.196Z,100312.41
2023-02-22T06:48:03.226Z,100307.28
2023-02-22T06:48:46.146Z,100283.63
2023-02-22T06:49:27.412Z,100311.69
2023-02-22T06:50:07.105Z,100280.88
2023-02-22T06:50:47.175Z,100298.69
2023-02-22T06:51:28.143Z,100306.19
2023-02-22T06:52:11.376Z,100304.47
2023-02-22T06:52:54.168Z,100316.47
2023-02-22T06:53:35.231Z,100310.63
2023-02-22T06:54:15.163Z,100296.13
2023-02-22T06:54:56.280Z,100314.94
2023-02-22T06:55:39.128Z,100304.50
2023-02-22T06:56:19.192Z,100304.50
2023-02-22T06:56:59.130Z,100285.38
2023-02-22T06:57:40.300Z,100296.03
2023-02-22T06:58:20.273Z,100302.66
2023-02-22T06:59:02.869Z,100291.13
2023-02-22T06:59:43.128Z,100320.44
2023-02-22T07:00:27.277Z,100315.31
2023-02-22T07:01:10.206Z,100299.84
2023-02-22T07:01:51.324Z,100296.91
2023-02-22T07:02:31.113Z,100320.91
2023-02-22T07:03:14.102Z,100314.81
2023-02-22T07:03:56.156Z,100308.66
2023-02-22T07:04:37.333Z,100322.16
2023-02-22T07:05:19.148Z,100313.34
2023-02-22T07:06:00.184Z,100318.84
2023-02-22T07:06:40.162Z,100296.44
2023-02-22T07:07:20.216Z,100311.34
2023-02-22T07:08:03.170Z,100296.78
2023-02-22T07:08:44.206Z,100296.13
2023-02-22T07:09:25.152Z,100314.94
2023-02-22T07:10:06.233Z,100329.38
2023-02-22T07:10:47.100Z,100318.34
2023-02-22T07:11:27.207Z,100328.66
2023-02-22T07:12:07.144Z,100328.44
2023-02-22T07:12:48.589Z,100324.84
2023-02-22T07:13:29.112Z,100337.59
2023-02-22T07:14:10.191Z,100311.00
2023-02-22T07:14:50.278Z,100322.41
2023-02-22T07:15:32.626Z,100328.22
2023-02-22T07:16:13.141Z,100322.16
2023-02-22T07:16:53.197Z,100333.97
2023-02-22T07:17:33.074Z,100329.69
2023-02-22T07:18:16.030Z,100318.38
2023-02-22T07:18:56.106Z,100332.91
2023-02-22T07:19:36.331Z,100326.88
2023-02-22T07:20:18.127Z,100316.31
2023-02-22T07:20:59.176Z,100309.44
2023-02-22T07:21:39.109Z,100336.94
2023-02-22T07:22:20.141Z,100330.59
2023-02-22T07:23:01.106Z,100331.56
2023-02-22T07:23:41.187Z,100304.59
2023-02-22T07:24:21.104Z,100324.56
2023-02-22T07:25:01.164Z,100333.03
2023-02-22T07:25:42.114Z,100334.63
2023-02-22T07:26:23.160Z,100331.31
2023-02-22T07:27:03.074Z,100328.25
2023-02-22T07:27:48.283Z,100329.13
2023-02-22T07:28:28.115Z,100330.81
2023-02-22T07:29:08.216Z,100327.63
2023-02-22T07:29:50.077Z,100340.13
2023-02-22T07:30:35.266Z,100331.94
2023-02-22T07:31:15.352Z,100317.13
2023-02-22T07:31:55.184Z,100340.41
2023-02-22T07:32:35.199Z,100325.91
2023-02-22T07:33:21.003Z,100342.47
2023-02-22T07:34:01.124Z,100347.38
2023-02-22T07:34:41.707Z,100349.13
2023-02-22T07:35:29.079Z,100329.38
2023-02-22T07:36:09.187Z,100334.75
2023-02-22T07:36:49.114Z,100321.75
2023-02-22T07:37:29.845Z,100329.97
2023-02-22T07:38:12.079Z,100335.72
2023-02-22T07:38:52.142Z,100337.47
2023-02-22T07:39:33.054Z,100318.44
2023-02-22T07:40:14.142Z,100314.63
2023-02-22T07:40:55.053Z,100323.09
2023-02-22T07:41:36.115Z,100332.53
2023-02-22T07:42:17.069Z,100327.16
2023-02-22T07:43:27.155Z,100339.19
2023-02-22T07:44:07.074Z,100341.13
2023-02-22T07:44:47.176Z,100320.06
2023-02-22T07:45:28.130Z,100334.66
2023-02-22T07:46:09.141Z,100340.66
2023-02-22T07:46:51.065Z,100333.31
2023-02-22T07:47:38.107Z,100314.44
2023-02-22T07:48:12.764Z,100322.25
2023-02-22T07:49:00.051Z,100326.06
2023-02-22T07:49:33.776Z,100326.44
2023-02-22T07:50:22.045Z,100316.63
2023-02-22T07:50:55.770Z,100336.22
2023-02-22T07:51:43.109Z,100341.97
2023-02-22T07:52:17.653Z,100321.75
2023-02-22T07:53:04.072Z,100329.00
2023-02-22T07:53:39.112Z,100350.91
2023-02-22T07:54:13.771Z,100337.94
2023-02-22T07:54:54.078Z,100354.25
2023-02-22T07:55:32.124Z,100351.19
2023-02-22T07:56:08.677Z,100354.59
2023-02-22T07:56:54.035Z,100344.69
2023-02-22T07:57:28.122Z,100328.47
2023-02-22T07:58:12.073Z,100340.63
2023-02-22T07:58:53.130Z,100346.88
2023-02-22T07:59:33.059Z,100337.94
2023-02-22T08:00:14.534Z,100341.63
2023-02-22T08:00:55.068Z,100316.63
2023-02-22T08:01:37.352Z,100344.09
2023-02-22T08:02:23.081Z,100332.19
2023-02-22T08:03:09.079Z,100343.59
2023-02-22T08:03:49.126Z,100346.03
2023-02-22T08:04:29.155Z,100334.53
2023-02-22T08:05:09.043Z,100318.13
2023-02-22T08:05:54.147Z,100318.97
2023-02-22T08:06:35.033Z,100328.41
2023-02-22T08:07:16.230Z,100322.25
2023-02-22T08:07:56.054Z,100323.84
2023-02-22T08:08:36.110Z,100332.78
2023-02-22T08:09:16.082Z,100344.56
2023-02-22T08:09:56.117Z,100350.19
2023-02-22T08:10:37.064Z,100346.66
2023-02-22T08:11:18.351Z,100325.19
2023-02-22T08:11:59.035Z,100338.41
2023-02-22T08:12:41.137Z,100315.41
2023-02-22T08:13:22.052Z,100341.38
2023-02-22T08:14:02.113Z,100319.53
2023-02-22T08:14:42.045Z,100322.59
2023-02-22T08:15:31.212Z,100344.91
2023-02-22T08:16:12.042Z,100337.81
2023-02-22T08:16:52.174Z,100344.56
2023-02-22T08:17:32.047Z,100329.72
2023-02-22T08:18:16.248Z,100350.56
2023-02-22T08:18:57.065Z,100323.59
2023-02-22T08:19:37.726Z,100340.03
2023-02-22T08:20:19.047Z,100343.94
2023-02-22T08:21:00.087Z,100347.53
2023-02-22T08:21:40.042Z,100327.94
2023-02-22T08:22:22.001Z,100348.75
2023-02-22T08:23:04.048Z,100345.06
2023-02-22T08:23:44.141Z,100335.72
2023-02-22T08:24:24.049Z,100326.91
2023-02-22T08:25:04.098Z,100343.31
2023-02-22T08:25:44.039Z,100347.38